Time;durP1;ratioP1;P1;durP2;ratioP2;P2;SDS_P1;SDS_P2;PMS_P1;PMS_P2;Temp;Humidity;BMP_temperature;BMP_pressure;BME280_temperature;BME280_humidity;BME280_pressure;Samples;Min_cycle;Max_cycle;Signal;HPM_P1;HPM_P2
2022/01/08 00:01:11;;;;;;;2.10;1.48;;;17.20;56.30;;;;;;5051869;28;20202;-60
2022/01/08 00:03:40;;;;;;;1.65;1.13;;;17.20;56.30;;;;;;5051455;28;20167;-60
2022/01/08 00:06:05;;;;;;;1.20;1.10;;;17.20;56.20;;;;;;5051008;28;20262;-60
2022/01/08 00:08:31;;;;;;;1.50;1.05;;;17.20;56.20;;;;;;5051976;28;20274;-60
2022/01/08 00:10:57;;;;;;;2.10;1.00;;;17.20;56.20;;;;;;5051628;28;20210;-61
2022/01/08 00:13:22;;;;;;;1.52;1.08;;;17.20;56.20;;;;;;5050667;28;20240;-62
2022/01/08 00:15:48;;;;;;;2.80;1.83;;;17.20;56.20;;;;;;5051542;28;20642;-62
2022/01/08 00:18:13;;;;;;;0.90;0.90;;;17.10;56.20;;;;;;5051579;28;20175;-61
2022/01/08 00:20:39;;;;;;;1.30;1.20;;;17.10;56.10;;;;;;5050476;28;20183;-61
2022/01/08 00:23:04;;;;;;;2.08;1.45;;;17.10;56.20;;;;;;5051491;28;20167;-61
2022/01/08 00:25:30;;;;;;;1.42;1.20;;;17.10;56.20;;;;;;5051496;28;20218;-61
2022/01/08 00:27:55;;;;;;;1.02;0.93;;;17.10;56.20;;;;;;5050900;28;20175;-60
2022/01/08 00:30:24;;;;;;;1.50;1.40;;;17.10;56.20;;;;;;5051097;28;20693;-61
2022/01/08 00:32:49;;;;;;;1.20;1.05;;;17.10;56.20;;;;;;5051478;28;20577;-60
2022/01/08 00:35:17;;;;;;;1.63;1.25;;;17.00;56.20;;;;;;5050609;28;20649;-59
2022/01/08 00:37:42;;;;;;;1.13;1.10;;;17.00;56.10;;;;;;5051290;28;20206;-60
2022/01/08 00:40:09;;;;;;;1.85;1.45;;;17.00;56.10;;;;;;5050284;28;20269;-59
2022/01/08 00:42:35;;;;;;;1.63;1.45;;;17.00;56.20;;;;;;5050919;28;20195;-60
2022/01/08 00:45:00;;;;;;;1.83;1.30;;;17.00;56.10;;;;;;5051400;28;20175;-60
2022/01/08 00:47:26;;;;;;;1.30;1.20;;;17.00;56.20;;;;;;5050290;28;20178;-60
2022/01/08 00:49:51;;;;;;;0.98;0.95;;;17.00;56.20;;;;;;5051060;28;20173;-60
2022/01/08 00:52:17;;;;;;;1.20;1.08;;;17.00;56.20;;;;;;5051045;28;20595;-60
2022/01/08 00:54:43;;;;;;;1.42;1.33;;;16.90;56.20;;;;;;5050297;28;20221;-61
2022/01/08 00:57:08;;;;;;;2.20;1.20;;;16.90;56.20;;;;;;5051342;28;20186;-61
2022/01/08 00:59:33;;;;;;;1.73;1.30;;;16.90;56.10;;;;;;5051714;28;20212;-61
2022/01/08 01:01:59;;;;;;;1.35;0.90;;;16.90;56.10;;;;;;5054167;28;20221;-59
2022/01/08 01:04:25;;;;;;;1.35;1.25;;;16.90;56.10;;;;;;5053248;28;20205;-60
2022/01/08 01:06:50;;;;;;;1.50;1.33;;;16.90;56.10;;;;;;5055124;28;20258;-60
2022/01/08 01:09:16;;;;;;;1.10;1.00;;;16.90;56.10;;;;;;5054572;28;20274;-59
2022/01/08 01:11:41;;;;;;;1.30;1.20;;;16.90;56.10;;;;;;5054639;28;20218;-61
2022/01/08 01:14:07;;;;;;;1.67;1.25;;;16.90;56.20;;;;;;5054865;28;20206;-61
2022/01/08 01:16:32;;;;;;;1.50;1.40;;;16.80;56.10;;;;;;5053902;28;20193;-61
2022/01/08 01:19:00;;;;;;;1.35;1.25;;;16.80;56.10;;;;;;5054714;28;20186;-60
2022/01/08 01:21:25;;;;;;;1.23;1.10;;;16.80;56.10;;;;;;5054286;28;20660;-60
2022/01/08 01:23:52;;;;;;;1.33;1.13;;;16.80;56.70;;;;;;5054072;28;20179;-60
2022/01/08 01:26:22;;;;;;;1.85;1.50;;;16.80;56.10;;;;;;5054667;28;20171;-60
2022/01/08 01:47:20;;;;;;;3.53;1.40;;;16.70;56.10;;;;;;5053903;28;20182;-60
2022/01/08 01:49:46;;;;;;;2.03;1.50;;;16.70;56.10;;;;;;5054131;28;20179;-60
2022/01/08 01:52:16;;;;;;;1.83;1.50;;;16.70;56.10;;;;;;5053143;28;20249;-60
2022/01/08 01:54:41;;;;;;;1.40;1.30;;;16.70;56.10;;;;;;5053971;28;20270;-60
2022/01/08 01:57:08;;;;;;;1.33;1.23;;;16.60;56.10;;;;;;5053937;28;20289;-60
2022/01/08 01:59:34;;;;;;;1.40;1.30;;;16.60;56.10;;;;;;5052666;28;20657;-61
2022/01/08 02:02:00;;;;;;;1.30;1.20;;;16.60;56.10;;;;;;5053880;28;20665;-60
2022/01/08 02:04:25;;;;;;;1.63;1.20;;;16.60;56.10;;;;;;5053520;28;20222;-60
2022/01/08 02:06:51;;;;;;;2.05;1.48;;;16.60;56.70;;;;;;5052999;28;20199;-59
2022/01/08 02:09:16;;;;;;;1.40;1.30;;;16.60;56.10;;;;;;5054027;28;20190;-60
2022/01/08 02:12:17;;;;;;;1.45;1.35;;;16.60;56.10;;;;;;5051371;28;20211;-61
2022/01/08 02:14:43;;;;;;;1.40;1.30;;;16.60;56.20;;;;;;5041851;28;20658;-62
2022/01/08 02:17:08;;;;;;;1.40;1.30;;;16.60;56.10;;;;;;5053478;28;20179;-60
2022/01/08 02:19:34;;;;;;;1.42;1.33;;;16.60;56.10;;;;;;5052796;28;20279;-60
2022/01/08 02:22:00;;;;;;;1.55;1.45;;;16.60;56.10;;;;;;5053663;28;20453;-59
2022/01/08 02:24:26;;;;;;;1.30;1.20;;;16.60;56.20;;;;;;5053302;28;20206;-59
2022/01/08 02:26:52;;;;;;;1.40;1.30;;;16.50;56.10;;;;;;5052690;28;20179;-60
2022/01/08 02:29:19;;;;;;;1.73;1.30;;;16.60;56.10;;;;;;5053436;28;20283;-59
2022/01/08 02:32:04;;;;;;;1.65;1.45;;;16.50;56.10;;;;;;5053155;28;20562;-59
2022/01/08 02:34:30;;;;;;;1.40;1.30;;;16.50;56.10;;;;;;5052567;28;20227;-59
2022/01/08 02:36:55;;;;;;;1.98;1.48;;;16.50;56.20;;;;;;5053415;28;20175;-60
2022/01/08 02:39:21;;;;;;;1.98;1.38;;;16.50;56.10;;;;;;5052851;28;20217;-60
2022/01/08 02:41:54;;;;;;;2.70;1.95;;;16.50;56.10;;;;;;5052522;28;20174;-60
2022/01/08 02:44:20;;;;;;;2.28;1.67;;;16.50;56.10;;;;;;5052598;28;20180;-60
2022/01/08 02:46:45;;;;;;;2.55;1.20;;;16.50;56.10;;;;;;5052527;28;20180;-61
2022/01/08 02:49:10;;;;;;;1.60;1.48;;;16.40;56.00;;;;;;5052980;28;20614;-59
2022/01/08 02:51:36;;;;;;;1.38;1.20;;;16.50;56.10;;;;;;5052542;28;20300;-60
2022/01/08 02:54:03;;;;;;;1.45;1.20;;;16.40;56.10;;;;;;5052272;28;20225;-60
2022/01/08 02:56:28;;;;;;;1.63;1.50;;;16.40;56.10;;;;;;5052582;28;20175;-60
2022/01/08 02:58:54;;;;;;;1.40;1.30;;;16.40;56.00;;;;;;5052694;28;20221;-59
2022/01/08 03:01:19;;;;;;;1.88;1.40;;;16.40;56.00;;;;;;5051890;28;20179;-60
2022/01/08 03:03:45;;;;;;;2.40;1.42;;;16.40;56.10;;;;;;5051559;28;20218;-59
2022/01/08 03:06:10;;;;;;;1.35;1.27;;;16.40;56.10;;;;;;5052792;28;20193;-59
2022/01/08 03:08:36;;;;;;;1.90;1.70;;;16.40;56.10;;;;;;5051765;28;20194;-60
2022/01/08 03:11:01;;;;;;;2.03;1.30;;;16.40;56.10;;;;;;5052549;28;20214;-60
2022/01/08 03:13:27;;;;;;;1.60;1.50;;;16.40;56.10;;;;;;5052257;28;20638;-61
2022/01/08 03:15:52;;;;;;;2.45;1.27;;;16.40;56.10;;;;;;5052135;28;20634;-59
2022/01/08 03:18:18;;;;;;;1.65;1.50;;;16.30;56.00;;;;;;5052281;28;20183;-60
2022/01/08 03:21:00;;;;;;;1.33;1.23;;;16.40;56.10;;;;;;5052309;28;20587;-60
2022/01/08 03:23:34;;;;;;;1.45;1.30;;;16.30;56.00;;;;;;5049946;28;20258;-60
2022/01/08 03:26:00;;;;;;;1.77;1.33;;;16.30;56.10;;;;;;5052268;28;20179;-60
2022/01/08 03:28:25;;;;;;;1.35;1.23;;;16.30;56.10;;;;;;5052044;28;20634;-60
2022/01/08 03:30:51;;;;;;;1.42;1.33;;;16.30;56.00;;;;;;5051338;28;20230;-60
2022/01/08 03:33:16;;;;;;;1.83;1.40;;;16.30;56.10;;;;;;5052098;28;20179;-58
2022/01/08 03:35:42;;;;;;;1.20;1.10;;;16.30;56.10;;;;;;5051595;28;20584;-59
2022/01/08 03:38:07;;;;;;;1.50;1.30;;;16.20;56.10;;;;;;5051479;28;20175;-59
2022/01/08 03:40:35;;;;;;;1.40;1.30;;;16.30;56.10;;;;;;5051617;28;20214;-59
2022/01/08 03:43:01;;;;;;;1.83;1.27;;;16.30;56.10;;;;;;5051322;28;20175;-59
2022/01/08 03:45:26;;;;;;;1.58;1.48;;;16.30;56.10;;;;;;5051766;28;20225;-60
2022/01/08 03:50:17;;;;;;;2.10;1.50;;;16.30;56.10;;;;;;5051182;28;20215;-60
2022/01/08 03:52:45;;;;;;;2.83;1.40;;;16.20;56.10;;;;;;5051384;28;20326;-60
2022/01/08 03:55:11;;;;;;;1.52;1.40;;;16.20;56.10;;;;;;5051657;28;20199;-60
2022/01/08 03:57:36;;;;;;;1.60;1.50;;;16.20;56.10;;;;;;5050902;28;20210;-60
2022/01/08 04:00:03;;;;;;;2.28;1.50;;;16.20;56.10;;;;;;5051751;28;20175;-59
2022/01/08 04:02:29;;;;;;;1.88;1.67;;;16.20;56.10;;;;;;5051410;28;20305;-59
2022/01/08 04:04:54;;;;;;;1.77;1.52;;;16.20;56.10;;;;;;5051279;28;20183;-59
2022/01/08 04:07:20;;;;;;;1.67;1.58;;;16.20;56.10;;;;;;5051290;28;20178;-59
2022/01/08 04:09:45;;;;;;;1.67;1.30;;;16.20;56.10;;;;;;5051462;28;20602;-59
2022/01/08 04:12:16;;;;;;;1.52;1.30;;;16.20;56.10;;;;;;5051007;28;20218;-60
2022/01/08 04:14:52;;;;;;;1.73;1.63;;;16.20;56.10;;;;;;5051477;28;20202;-61
2022/01/08 04:17:18;;;;;;;1.40;1.30;;;16.10;56.10;;;;;;5051599;28;20231;-60
2022/01/08 04:19:44;;;;;;;1.52;1.40;;;16.20;56.10;;;;;;5050477;28;20175;-60
2022/01/08 04:22:12;;;;;;;1.60;1.50;;;16.10;56.10;;;;;;5051330;28;20602;-60
2022/01/08 04:24:38;;;;;;;1.42;1.30;;;16.10;56.10;;;;;;5051053;28;20609;-60
2022/01/08 04:27:04;;;;;;;1.70;1.60;;;16.10;56.10;;;;;;5050754;28;20183;-60
2022/01/08 04:29:29;;;;;;;1.30;1.20;;;16.10;56.10;;;;;;5051187;28;20698;-60
2022/01/08 04:31:55;;;;;;;2.00;1.23;;;16.10;56.10;;;;;;5051336;28;20249;-59
2022/01/08 04:34:21;;;;;;;1.70;1.60;;;16.10;56.10;;;;;;5050801;28;20571;-59
2022/01/08 04:36:46;;;;;;;1.77;1.63;;;16.10;56.10;;;;;;5055483;28;20229;-60
2022/01/08 04:39:12;;;;;;;1.58;1.35;;;16.10;56.10;;;;;;5055496;28;20263;-59
2022/01/08 04:41:37;;;;;;;1.50;1.40;;;16.00;56.00;;;;;;5054669;28;20179;-60
2022/01/08 04:44:06;;;;;;;2.30;1.52;;;16.00;56.10;;;;;;5055317;28;20549;-60
2022/01/08 04:46:32;;;;;;;1.38;1.27;;;16.00;56.10;;;;;;5054332;28;20186;-60
2022/01/08 04:48:57;;;;;;;1.60;1.50;;;16.00;56.10;;;;;;5055233;28;20571;-60
2022/01/08 04:51:23;;;;;;;1.70;1.27;;;16.00;56.10;;;;;;5054538;28;20689;-61
2022/01/08 04:53:48;;;;;;;1.95;1.50;;;16.00;56.10;;;;;;5054598;28;20170;-60
2022/01/08 04:56:14;;;;;;;2.17;1.50;;;16.00;56.10;;;;;;5055026;28;20179;-61
2022/01/08 04:58:40;;;;;;;1.58;1.48;;;16.00;56.10;;;;;;5054673;28;20696;-59
2022/01/08 05:01:10;;;;;;;1.30;1.15;;;16.00;56.10;;;;;;5054400;28;20207;-61
2022/01/08 05:03:36;;;;;;;1.80;1.70;;;16.00;56.10;;;;;;5054738;28;20494;-60
2022/01/08 05:06:01;;;;;;;1.55;1.45;;;16.00;56.10;;;;;;5054800;28;20675;-60
2022/01/08 05:08:27;;;;;;;1.52;1.42;;;16.00;56.10;;;;;;5054076;28;20171;-60
2022/01/08 05:10:52;;;;;;;2.00;1.55;;;15.90;56.10;;;;;;5054891;28;20211;-60
2022/01/08 05:13:18;;;;;;;1.40;1.30;;;15.90;56.70;;;;;;5054717;28;20175;-61
2022/01/08 05:15:43;;;;;;;1.90;1.63;;;15.90;56.10;;;;;;5053725;28;20217;-61
2022/01/08 05:18:10;;;;;;;1.58;1.48;;;15.90;56.10;;;;;;5054742;28;20214;-60
2022/01/08 05:20:38;;;;;;;1.73;1.63;;;15.90;56.10;;;;;;5054237;28;20537;-60
2022/01/08 05:23:04;;;;;;;1.20;1.13;;;15.90;56.10;;;;;;5053860;28;20486;-59
2022/01/08 05:25:30;;;;;;;1.63;1.45;;;15.90;56.10;;;;;;5054434;28;20182;-59
2022/01/08 05:27:55;;;;;;;1.35;1.20;;;15.90;56.10;;;;;;5054436;28;20182;-60
2022/01/08 05:30:22;;;;;;;1.50;1.40;;;15.90;56.10;;;;;;5053551;28;20691;-60
2022/01/08 05:32:47;;;;;;;1.83;1.60;;;15.90;56.10;;;;;;5054364;28;20175;-59
2022/01/08 05:35:13;;;;;;;1.38;1.27;;;15.90;56.10;;;;;;5054237;28;20220;-59
2022/01/08 05:37:38;;;;;;;1.38;1.27;;;15.90;56.10;;;;;;5053535;28;20281;-59
2022/01/08 05:40:04;;;;;;;1.50;1.40;;;15.90;56.10;;;;;;5054153;28;20186;-59
2022/01/08 05:42:30;;;;;;;2.05;1.50;;;15.80;56.00;;;;;;5053771;28;20189;-60
2022/01/08 05:44:55;;;;;;;1.67;1.50;;;15.80;56.10;;;;;;5053808;28;20174;-60
2022/01/08 05:47:21;;;;;;;1.65;1.30;;;15.80;56.10;;;;;;5053881;28;20209;-60
2022/01/08 05:49:47;;;;;;;1.40;1.30;;;15.80;56.00;;;;;;5053313;28;20167;-59
2022/01/08 05:52:12;;;;;;;1.60;1.50;;;15.80;56.10;;;;;;5053780;28;20246;-60
2022/01/08 05:54:38;;;;;;;2.47;1.70;;;15.80;56.10;;;;;;5053610;28;20171;-60
2022/01/08 05:57:04;;;;;;;1.63;1.52;;;15.80;56.10;;;;;;5053322;28;20171;-61
2022/01/08 05:59:30;;;;;;;1.13;1.13;;;15.80;56.10;;;;;;5053608;28;20191;-60
2022/01/08 06:01:56;;;;;;;1.65;1.55;;;15.80;56.10;;;;;;5053903;28;20216;-59
2022/01/08 06:04:21;;;;;;;1.50;1.15;;;15.80;56.10;;;;;;5052820;28;20568;-58
2022/01/08 06:06:47;;;;;;;1.70;1.20;;;15.70;56.10;;;;;;5053589;28;20669;-60
2022/01/08 06:09:12;;;;;;;1.30;1.20;;;15.70;56.10;;;;;;5053940;28;20221;-60
2022/01/08 06:11:37;;;;;;;1.55;1.40;;;15.70;56.10;;;;;;5052744;28;20211;-60
2022/01/08 06:14:03;;;;;;;1.38;1.27;;;15.70;56.10;;;;;;5053630;28;20175;-60
2022/01/08 06:16:37;;;;;;;2.35;1.27;;;15.70;56.10;;;;;;5053473;28;20629;-60
2022/01/08 06:19:07;;;;;;;1.30;1.20;;;15.70;56.10;;;;;;5052832;28;20168;-60
2022/01/08 06:21:32;;;;;;;1.85;1.50;;;15.70;56.10;;;;;;5053386;28;20183;-59
2022/01/08 06:23:58;;;;;;;1.60;1.38;;;15.70;56.10;;;;;;5053425;28;20586;-59
2022/01/08 06:26:23;;;;;;;2.35;1.70;;;15.70;56.10;;;;;;5052483;28;20194;-60
2022/01/08 06:28:51;;;;;;;1.60;1.50;;;15.70;56.10;;;;;;5053411;28;20175;-59
2022/01/08 06:31:20;;;;;;;1.70;1.60;;;15.70;56.10;;;;;;5053185;28;20247;-59
2022/01/08 06:33:46;;;;;;;2.00;1.20;;;15.60;56.00;;;;;;5052527;28;20179;-59
2022/01/08 06:36:13;;;;;;;1.27;1.20;;;15.70;56.10;;;;;;5053228;28;20475;-58
2022/01/08 06:38:38;;;;;;;1.63;1.40;;;15.70;56.10;;;;;;5053029;28;20261;-59
2022/01/08 06:41:04;;;;;;;1.52;1.33;;;15.70;56.00;;;;;;5052909;28;20831;-59
2022/01/08 06:43:29;;;;;;;1.67;1.38;;;15.70;55.90;;;;;;5052912;28;20693;-60
2022/01/08 06:45:55;;;;;;;1.40;1.30;;;15.70;55.90;;;;;;5052426;28;20225;-59
2022/01/08 06:48:20;;;;;;;1.30;1.20;;;15.70;55.90;;;;;;5052994;28;20171;-60
2022/01/08 06:50:45;;;;;;;1.55;1.40;;;15.70;55.90;;;;;;5052913;28;20226;-60
2022/01/08 06:53:11;;;;;;;1.65;1.35;;;15.70;55.90;;;;;;5051955;28;20883;-59
2022/01/08 06:55:37;;;;;;;1.60;1.50;;;15.70;55.90;;;;;;5052739;28;20202;-59
2022/01/08 06:58:02;;;;;;;1.58;1.30;;;15.70;55.90;;;;;;5052321;28;20265;-59
2022/01/08 07:00:28;;;;;;;1.70;1.40;;;15.70;55.90;;;;;;5051893;28;20217;-60
2022/01/08 07:02:53;;;;;;;1.23;1.13;;;15.70;55.90;;;;;;5052796;28;20191;-60
2022/01/08 07:05:19;;;;;;;1.35;1.25;;;15.70;55.90;;;;;;5052425;28;20174;-60
2022/01/08 07:07:48;;;;;;;1.50;1.27;;;15.70;55.90;;;;;;5052184;28;20171;-59
2022/01/08 07:10:13;;;;;;;2.15;1.30;;;15.70;55.70;;;;;;5052629;28;20186;-59
2022/01/08 07:12:39;;;;;;;3.17;1.75;;;15.80;55.70;;;;;;5052491;28;20179;-60
2022/01/08 07:15:05;;;;;;;1.25;1.15;;;15.90;56.10;;;;;;5051931;28;20174;-61
2022/01/08 07:17:30;;;;;;;1.20;1.10;;;16.00;56.00;;;;;;5052022;28;20202;-61
2022/01/08 07:19:56;;;;;;;1.98;1.50;;;16.10;55.90;;;;;;5052384;28;20193;-60
2022/01/08 07:22:21;;;;;;;1.48;1.20;;;16.30;55.60;;;;;;5051256;28;20182;-60
2022/01/08 07:24:47;;;;;;;1.52;1.42;;;16.40;56.00;;;;;;5052573;28;20167;-60
2022/01/08 07:27:13;;;;;;;1.63;1.20;;;16.60;55.10;;;;;;5052310;28;20178;-59
2022/01/08 07:29:38;;;;;;;1.98;1.38;;;16.70;54.90;;;;;;5051244;28;20217;-60
2022/01/08 07:32:04;;;;;;;1.85;1.13;;;16.90;54.70;;;;;;5052046;28;20221;-59
2022/01/08 07:34:30;;;;;;;1.55;1.20;;;17.00;54.50;;;;;;5052150;28;20171;-59
2022/01/08 07:36:55;;;;;;;1.38;1.27;;;17.10;54.30;;;;;;5051587;28;20549;-59
2022/01/08 07:39:21;;;;;;;1.40;1.30;;;17.30;54.10;;;;;;5051784;28;20199;-59
2022/01/08 07:41:46;;;;;;;2.17;1.27;;;17.50;53.70;;;;;;5052123;28;20178;-59
2022/01/08 07:44:12;;;;;;;1.30;1.20;;;17.70;53.30;;;;;;5051322;28;20171;-60
2022/01/08 07:46:37;;;;;;;1.30;1.20;;;17.80;53.00;;;;;;5051575;28;20175;-59
2022/01/08 07:49:03;;;;;;;1.40;1.30;;;17.80;53.10;;;;;;5052117;28;20187;-60
2022/01/08 07:51:28;;;;;;;1.38;1.10;;;17.80;53.20;;;;;;5050438;28;20227;-60
2022/01/08 07:53:54;;;;;;;1.13;1.02;;;17.80;53.20;;;;;;5052025;28;20552;-59
2022/01/08 07:56:19;;;;;;;1.33;1.10;;;17.70;53.30;;;;;;5050991;28;20168;-59
2022/01/08 07:58:45;;;;;;;1.30;1.20;;;17.70;53.50;;;;;;5051914;28;20190;-59
2022/01/08 08:01:10;;;;;;;0.98;0.98;;;17.80;53.60;;;;;;5051793;28;20171;-59
2022/01/08 08:03:36;;;;;;;1.42;1.10;;;17.90;53.40;;;;;;5050801;28;20178;-59
2022/01/08 08:06:01;;;;;;;1.30;1.20;;;18.00;53.10;;;;;;5051711;28;20562;-58
2022/01/08 08:08:26;;;;;;;1.90;1.30;;;18.10;53.10;;;;;;5050977;28;20179;-68
2022/01/08 08:10:52;;;;;;;1.90;1.40;;;18.10;53.10;;;;;;5049993;28;20236;-68
2022/01/08 08:13:21;;;;;;;2.17;1.27;;;18.20;53.10;;;;;;5051456;28;20176;-69
2022/01/08 08:15:47;;;;;;;2.28;1.60;;;18.40;53.10;;;;;;5051248;28;20175;-64
2022/01/08 08:18:12;;;;;;;4.57;1.83;;;18.40;53.20;;;;;;5050748;28;20178;-64
2022/01/08 08:20:39;;;;;;;2.70;1.42;;;18.40;53.00;;;;;;5051188;28;20225;-61
2022/01/08 08:23:04;;;;;;;3.25;1.58;;;18.40;53.00;;;;;;5051345;28;20190;-64
2022/01/08 08:25:30;;;;;;;2.45;1.60;;;18.30;52.90;;;;;;5050213;28;20316;-65
2022/01/08 08:27:56;;;;;;;4.40;1.75;;;18.40;53.00;;;;;;5051228;28;20199;-65
2022/01/08 08:30:22;;;;;;;2.20;1.70;;;18.40;53.00;;;;;;5050680;28;20206;-64
2022/01/08 08:32:47;;;;;;;2.20;1.70;;;18.40;53.00;;;;;;5050744;28;20185;-65
2022/01/08 08:35:13;;;;;;;5.18;1.65;;;18.40;53.10;;;;;;5051218;28;20262;-65
2022/01/08 08:37:40;;;;;;;3.03;1.48;;;18.40;53.10;;;;;;5050889;28;20187;-64
2022/01/08 08:40:07;;;;;;;5.03;1.60;;;18.40;53.10;;;;;;5050442;28;20179;-63
2022/01/08 08:42:35;;;;;;;3.13;1.70;;;18.40;53.20;;;;;;5050783;28;20182;-63
2022/01/08 08:45:01;;;;;;;4.50;1.70;;;18.40;53.20;;;;;;5051342;28;20175;-64
2022/01/08 08:47:26;;;;;;;2.63;1.73;;;18.40;53.30;;;;;;5050338;28;20206;-64
2022/01/08 08:49:52;;;;;;;2.45;1.63;;;18.40;53.30;;;;;;5051433;28;20179;-64
2022/01/08 08:52:17;;;;;;;2.50;1.65;;;18.40;53.80;;;;;;5050361;28;20230;-64
2022/01/08 08:54:43;;;;;;;2.92;1.67;;;18.40;53.20;;;;;;5049994;28;20171;-64
2022/01/08 08:57:09;;;;;;;4.97;1.80;;;18.40;53.20;;;;;;5050919;28;20676;-65
2022/01/08 08:59:35;;;;;;;2.95;1.50;;;18.40;53.20;;;;;;5050147;28;20540;-64
2022/01/08 09:02:01;;;;;;;2.63;1.50;;;18.40;53.10;;;;;;5051030;28;20266;-65
2022/01/08 09:04:26;;;;;;;3.08;1.42;;;18.30;53.20;;;;;;5050591;28;20179;-64
2022/01/08 09:06:52;;;;;;;3.28;1.60;;;18.30;53.10;;;;;;5050404;28;20625;-63
2022/01/08 09:09:17;;;;;;;2.72;2.00;;;18.40;53.30;;;;;;5050910;28;20183;-63
2022/01/08 09:11:43;;;;;;;2.30;1.75;;;18.30;53.20;;;;;;5050876;28;20289;-63
2022/01/08 09:14:08;;;;;;;4.32;1.75;;;18.30;53.20;;;;;;5050022;28;20235;-65
2022/01/08 09:16:34;;;;;;;3.22;1.58;;;18.30;53.10;;;;;;5050453;28;20175;-63
2022/01/08 09:19:00;;;;;;;2.75;1.65;;;18.30;53.20;;;;;;5050977;28;20186;-65
2022/01/08 09:21:25;;;;;;;2.38;1.40;;;18.30;53.10;;;;;;5052248;28;20547;-64
2022/01/08 09:23:51;;;;;;;3.22;1.42;;;18.30;53.10;;;;;;5054556;28;20254;-64
2022/01/08 09:26:16;;;;;;;2.35;1.60;;;18.30;53.20;;;;;;5054607;28;20202;-65
2022/01/08 09:28:42;;;;;;;2.35;1.60;;;18.30;53.10;;;;;;5053446;28;20641;-64
2022/01/08 09:31:10;;;;;;;4.07;1.70;;;18.30;53.20;;;;;;5054516;28;20215;-65
2022/01/08 09:33:36;;;;;;;2.95;1.75;;;18.30;53.00;;;;;;5053011;28;20185;-65
2022/01/08 09:36:02;;;;;;;2.70;1.77;;;18.30;53.20;;;;;;5052388;28;20578;-65
2022/01/08 09:38:27;;;;;;;3.10;1.70;;;18.30;53.10;;;;;;5054218;28;20591;-68
2022/01/08 09:40:53;;;;;;;2.22;1.40;;;18.30;53.20;;;;;;5054143;28;20254;-64
2022/01/08 09:43:18;;;;;;;3.17;1.90;;;18.40;53.10;;;;;;5053468;28;20170;-64
2022/01/08 09:45:47;;;;;;;2.63;1.52;;;18.40;53.10;;;;;;5051692;28;20665;-63
2022/01/08 09:48:12;;;;;;;2.15;1.33;;;18.40;53.10;;;;;;5053736;28;20258;-63
2022/01/08 09:50:40;;;;;;;3.42;1.60;;;18.50;53.20;;;;;;5052320;28;20333;-62
2022/01/08 09:53:06;;;;;;;2.97;1.98;;;18.50;53.10;;;;;;5052814;28;20231;-63
2022/01/08 09:55:31;;;;;;;2.90;1.55;;;18.50;53.00;;;;;;5050903;28;20190;-63
2022/01/08 09:57:57;;;;;;;2.10;1.38;;;18.60;53.10;;;;;;5052797;28;20595;-64
2022/01/08 10:00:22;;;;;;;2.38;1.60;;;18.50;53.20;;;;;;5052884;28;20204;-64
2022/01/08 10:02:49;;;;;;;4.47;1.70;;;18.50;53.30;;;;;;5051153;28;20171;-65
2022/01/08 10:05:15;;;;;;;2.13;1.50;;;18.50;53.40;;;;;;5051911;28;20258;-65
2022/01/08 10:07:40;;;;;;;2.42;1.23;;;18.50;53.50;;;;;;5050322;28;20178;-64
2022/01/08 10:10:12;;;;;;;3.45;1.70;;;18.50;53.50;;;;;;5052894;28;20179;-65
2022/01/08 10:12:54;;;;;;;3.28;1.70;;;18.40;53.60;;;;;;5053326;28;20187;-64
2022/01/08 10:18:11;;;;;;;4.32;1.88;;;18.40;53.70;;;;;;5052685;28;20209;-63
2022/01/08 10:20:38;;;;;;;2.22;1.48;;;18.30;53.80;;;;;;5051817;28;20556;-64
2022/01/08 10:23:11;;;;;;;2.60;1.42;;;18.30;53.90;;;;;;5053711;28;20182;-65
2022/01/08 10:25:39;;;;;;;4.10;1.60;;;18.20;54.00;;;;;;5052386;28;20201;-65
2022/01/08 10:28:05;;;;;;;3.65;1.40;;;18.20;54.00;;;;;;5053174;28;20633;-66
2022/01/08 10:30:30;;;;;;;2.40;1.40;;;18.10;54.10;;;;;;5052868;28;20278;-67
2022/01/08 10:33:03;;;;;;;2.08;1.52;;;18.10;54.30;;;;;;5051514;28;20189;-68
2022/01/08 10:35:50;;;;;;;3.10;1.67;;;18.10;54.30;;;;;;5053197;28;20221;-68
2022/01/08 10:38:16;;;;;;;4.07;1.80;;;18.10;54.20;;;;;;5052367;28;20199;-65
2022/01/08 10:40:41;;;;;;;3.92;1.50;;;18.00;54.20;;;;;;5052987;28;20183;-69
2022/01/08 10:43:24;;;;;;;1.77;1.38;;;18.10;54.20;;;;;;5053153;28;20186;-67
2022/01/08 10:45:51;;;;;;;1.98;1.67;;;18.10;54.00;;;;;;5052569;28;20513;-67
2022/01/08 10:48:27;;;;;;;2.75;1.50;;;18.20;54.10;;;;;;5053150;28;20216;-66
2022/01/08 10:50:52;;;;;;;4.20;1.52;;;18.20;54.10;;;;;;5052932;28;20211;-66
2022/01/08 10:53:18;;;;;;;4.07;1.60;;;18.20;54.10;;;;;;5052022;28;20229;-66
2022/01/08 10:55:43;;;;;;;3.33;1.48;;;18.20;54.00;;;;;;5053066;28;20225;-66
2022/01/08 10:58:09;;;;;;;3.00;1.48;;;18.30;54.10;;;;;;5051196;28;20638;-67
2022/01/08 11:00:34;;;;;;;2.83;1.40;;;18.30;54.00;;;;;;5050542;28;20178;-65
2022/01/08 11:03:00;;;;;;;4.03;1.60;;;18.30;53.90;;;;;;5052895;28;20254;-66
2022/01/08 11:05:27;;;;;;;4.53;1.90;;;18.40;54.00;;;;;;5051993;28;20183;-67
2022/01/08 11:07:53;;;;;;;4.10;1.60;;;18.40;54.00;;;;;;5051943;28;20183;-64
2022/01/08 11:10:21;;;;;;;2.88;1.50;;;18.30;54.10;;;;;;5050995;28;20657;-65
2022/01/08 11:12:47;;;;;;;2.60;1.80;;;18.30;54.00;;;;;;5052493;28;20183;-64
2022/01/08 11:17:54;;;;;;;1.52;1.20;;;18.20;54.20;;;;;;5052415;28;20178;-64
2022/01/08 11:20:28;;;;;;;3.67;1.80;;;18.20;54.30;;;;;;5051629;28;20194;-63
2022/01/08 11:22:55;;;;;;;2.65;1.80;;;18.20;54.50;;;;;;5052710;28;20258;-64
2022/01/08 11:25:24;;;;;;;3.20;1.45;;;18.20;54.50;;;;;;5051852;28;20622;-63
2022/01/08 11:28:11;;;;;;;3.42;1.50;;;18.20;54.50;;;;;;5051816;28;20259;-66
2022/01/08 11:30:50;;;;;;;2.90;1.60;;;18.20;54.50;;;;;;5051755;28;20211;-65
2022/01/08 11:33:30;;;;;;;3.40;1.60;;;18.20;54.50;;;;;;5052045;28;20266;-65
2022/01/08 11:35:55;;;;;;;2.45;1.65;;;18.20;54.50;;;;;;5051231;28;20220;-66
2022/01/08 11:38:22;;;;;;;3.67;1.52;;;18.10;54.50;;;;;;5051851;28;20353;-66
2022/01/08 11:40:50;;;;;;;1.58;1.27;;;18.10;54.50;;;;;;5052194;28;20171;-66
2022/01/08 11:43:19;;;;;;;3.63;1.60;;;18.10;54.60;;;;;;5050871;28;20237;-71
2022/01/08 11:45:53;;;;;;;2.83;1.67;;;18.00;54.60;;;;;;5059207;28;20174;-71
2022/01/08 11:48:21;;;;;;;3.42;1.77;;;18.00;54.50;;;;;;5064536;28;20170;-69
2022/01/08 11:50:52;;;;;;;2.60;2.00;;;18.00;54.60;;;;;;5070734;28;20575;-69
2022/01/08 11:53:21;;;;;;;3.10;1.63;;;17.90;54.60;;;;;;5031818;28;20254;-69
2022/01/08 11:55:51;;;;;;;1.75;1.50;;;17.90;54.60;;;;;;5031119;28;20194;-69
2022/01/08 11:58:27;;;;;;;2.60;1.75;;;17.90;54.60;;;;;;5031769;28;20275;-70
2022/01/08 12:00:57;;;;;;;3.67;2.10;;;17.90;54.50;;;;;;5057026;28;20556;-71
2022/01/08 12:03:31;;;;;;;3.60;1.90;;;17.90;54.40;;;;;;5071035;28;20202;-70
2022/01/08 12:06:16;;;;;;;2.58;1.65;;;17.90;54.40;;;;;;5071781;28;20178;-69
2022/01/08 12:09:23;;;;;;;2.35;1.60;;;17.90;54.40;;;;;;5071456;28;20194;-68
2022/01/08 12:12:00;;;;;;;2.35;1.80;;;17.80;54.30;;;;;;5071671;28;20320;-68
2022/01/08 12:14:29;;;;;;;4.63;1.80;;;17.80;54.30;;;;;;5071079;28;20655;-69
2022/01/08 12:17:18;;;;;;;1.98;1.70;;;17.70;54.30;;;;;;5066499;28;20162;-69
2022/01/08 12:19:44;;;;;;;2.72;1.60;;;17.70;54.30;;;;;;5051330;28;20548;-65
2022/01/08 12:22:16;;;;;;;1.92;1.50;;;17.70;54.50;;;;;;5051704;28;20175;-65
2022/01/08 12:24:42;;;;;;;3.55;1.90;;;17.70;54.50;;;;;;5050697;28;20175;-65
2022/01/08 12:27:33;;;;;;;3.78;2.00;;;17.70;54.40;;;;;;5051583;28;20490;-64
2022/01/08 12:29:59;;;;;;;1.92;1.42;;;17.70;54.40;;;;;;5047855;28;20209;-65
2022/01/08 12:32:36;;;;;;;6.38;1.88;;;17.70;54.40;;;;;;5050370;28;20234;-64
2022/01/08 12:35:37;;;;;;;3.08;1.88;;;17.70;54.30;;;;;;5051289;28;20182;-64
2022/01/08 12:38:21;;;;;;;4.13;1.80;;;17.80;54.30;;;;;;5050450;28;20656;-62
2022/01/08 12:40:50;;;;;;;3.83;1.83;;;17.90;54.20;;;;;;5050238;28;20171;-66
2022/01/08 12:43:20;;;;;;;3.67;1.45;;;17.90;54.10;;;;;;5051407;28;20222;-65
2022/01/08 12:45:50;;;;;;;2.78;1.48;;;17.90;54.10;;;;;;5050689;28;20207;-65
2022/01/08 12:48:16;;;;;;;5.10;1.92;;;17.90;54.10;;;;;;5051416;28;20205;-64
2022/01/08 12:50:41;;;;;;;2.00;1.80;;;17.90;54.10;;;;;;5051904;28;20217;-65
2022/01/08 12:53:07;;;;;;;2.63;1.63;;;17.90;54.20;;;;;;5070332;28;20302;-66
2022/01/08 12:55:33;;;;;;;1.90;1.45;;;17.80;54.10;;;;;;5052645;28;20230;-64
2022/01/08 12:57:59;;;;;;;3.05;1.38;;;17.80;54.20;;;;;;5054788;28;20179;-67
2022/01/08 13:00:25;;;;;;;4.10;2.33;;;17.80;54.30;;;;;;5053777;28;20262;-66
2022/01/08 13:02:50;;;;;;;2.67;1.75;;;17.80;54.40;;;;;;5054713;28;20178;-66
2022/01/08 13:05:16;;;;;;;2.33;1.60;;;17.80;54.40;;;;;;5053430;28;20257;-66
2022/01/08 13:07:51;;;;;;;4.35;1.60;;;17.90;54.50;;;;;;5053864;28;20179;-66
2022/01/08 13:10:19;;;;;;;3.83;1.65;;;17.90;54.50;;;;;;5054846;28;20171;-64
2022/01/08 13:13:04;;;;;;;7.43;1.75;;;18.00;54.30;;;;;;5053980;28;20266;-65
2022/01/08 13:15:31;;;;;;;4.25;1.77;;;18.10;54.30;;;;;;5054173;28;20184;-65